createdAt,value
2023-04-02T00:02:24.599Z,3.20
2023-04-02T00:05:18.226Z,3.30
2023-04-02T00:07:53.027Z,3.03
2023-04-02T00:10:35.005Z,3.35
2023-04-02T00:13:07.429Z,3.60
2023-04-02T00:15:35.770Z,3.35
2023-04-02T00:18:04.196Z,3.33
2023-04-02T00:20:36.560Z,3.00
2023-04-02T00:23:05.137Z,3.35
2023-04-02T00:25:42.971Z,3.15
2023-04-02T00:28:14.968Z,3.10
2023-04-02T00:31:00.328Z,3.20
2023-04-02T00:33:30.718Z,3.13
2023-04-02T00:35:58.437Z,3.58
2023-04-02T00:38:29.981Z,3.20
2023-04-02T00:41:01.727Z,3.60
2023-04-02T00:43:32.438Z,3.22
2023-04-02T00:46:10.871Z,3.30
2023-04-02T00:48:50.070Z,3.25
2023-04-02T00:51:28.083Z,3.25
2023-04-02T00:53:58.323Z,3.13
2023-04-02T00:56:38.547Z,3.63
2023-04-02T00:59:16.494Z,3.30
2023-04-02T01:01:44.612Z,3.25
2023-04-02T01:04:34.498Z,3.47
2023-04-02T01:07:08.686Z,3.83
2023-04-02T01:09:53.836Z,3.55
2023-04-02T01:12:39.433Z,3.60
2023-04-02T01:15:21.275Z,3.25
2023-04-02T01:18:10.254Z,3.67
2023-04-02T01:21:08.240Z,3.70
2023-04-02T01:23:52.813Z,3.53
2023-04-02T01:26:57.673Z,3.83
2023-04-02T01:29:31.206Z,3.50
2023-04-02T01:32:04.252Z,3.85
2023-04-02T01:34:32.216Z,3.55
2023-04-02T01:37:22.299Z,3.70
2023-04-02T01:40:14.812Z,3.72
2023-04-02T01:43:06.356Z,3.22
2023-04-02T01:45:35.246Z,3.20
2023-04-02T01:48:13.753Z,3.22
2023-04-02T01:50:43.740Z,3.53
2023-04-02T01:53:14.902Z,3.60
2023-04-02T01:55:52.550Z,3.67
2023-04-02T01:58:25.952Z,3.42
2023-04-02T02:00:56.252Z,3.28
2023-04-02T02:03:24.458Z,3.33
2023-04-02T02:05:52.251Z,3.33
2023-04-02T02:08:39.975Z,3.08
2023-04-02T02:11:13.370Z,3.42
2023-04-02T02:13:46.532Z,3.22
2023-04-02T02:16:18.206Z,3.13
2023-04-02T02:18:55.995Z,2.80
2023-04-02T02:21:39.917Z,3.33
2023-04-02T02:24:29.197Z,3.22
2023-04-02T02:27:14.590Z,3.15
2023-04-02T02:29:43.074Z,3.03
2023-04-02T02:32:12.951Z,3.00
2023-04-02T02:34:48.267Z,3.00
2023-04-02T02:37:33.675Z,2.78
2023-04-02T02:40:03.107Z,3.00
2023-04-02T02:42:38.883Z,2.95
2023-04-02T02:45:13.099Z,3.05
2023-04-02T02:47:42.610Z,2.50
2023-04-02T02:50:26.897Z,2.83
2023-04-02T02:52:57.256Z,2.60
2023-04-02T02:55:38.626Z,2.92
2023-04-02T02:58:16.097Z,2.90
2023-04-02T03:00:44.802Z,3.20
2023-04-02T03:03:18.291Z,3.03
2023-04-02T03:05:53.778Z,2.80
2023-04-02T03:08:33.105Z,2.72
2023-04-02T03:11:39.431Z,2.80
2023-04-02T03:14:32.991Z,2.90
2023-04-02T03:17:23.185Z,2.85
2023-04-02T03:20:02.028Z,2.63
2023-04-02T03:22:38.264Z,2.60
2023-04-02T03:25:20.725Z,2.78
2023-04-02T03:27:53.699Z,3.10
2023-04-02T03:31:02.198Z,2.70
2023-04-02T03:33:40.918Z,2.63
2023-04-02T03:36:22.833Z,2.78
2023-04-02T03:39:09.866Z,3.00
2023-04-02T03:41:58.639Z,2.45
2023-04-02T03:44:39.163Z,2.92
2023-04-02T03:47:16.416Z,2.85
2023-04-02T03:49:55.698Z,2.67
2023-04-02T03:52:28.353Z,2.88
2023-04-02T03:54:58.688Z,2.60
2023-04-02T03:57:34.252Z,2.75
2023-04-02T04:00:20.328Z,2.85
2023-04-02T04:02:54.821Z,2.70
2023-04-02T04:05:32.344Z,2.67
2023-04-02T04:08:23.683Z,2.67
2023-04-02T04:10:59.619Z,2.60
2023-04-02T04:13:36.288Z,2.78
2023-04-02T04:16:12.177Z,2.80
2023-04-02T04:18:57.187Z,2.65
2023-04-02T04:21:31.346Z,2.50
2023-04-02T04:24:03.990Z,2.75
2023-04-02T04:26:40.198Z,2.45
2023-04-02T04:29:29.000Z,2.50
2023-04-02T04:31:58.864Z,2.65
2023-04-02T04:34:42.251Z,2.60
2023-04-02T04:37:25.233Z,2.70
2023-04-02T04:40:01.120Z,2.60
2023-04-02T04:42:32.693Z,2.70
2023-04-02T04:45:13.411Z,2.47
2023-04-02T04:47:47.057Z,2.50
2023-04-02T04:50:30.112Z,2.30
2023-04-02T04:52:57.546Z,2.35
2023-04-02T04:58:11.345Z,2.58
2023-04-02T05:00:55.289Z,2.30
2023-04-02T05:03:44.323Z,2.30
2023-04-02T05:06:45.564Z,2.25
2023-04-02T05:09:33.246Z,2.30
2023-04-02T05:12:42.353Z,2.25
2023-04-02T05:15:12.397Z,2.53
2023-04-02T05:17:56.127Z,2.20
2023-04-02T05:20:30.071Z,2.42
2023-04-02T05:23:13.655Z,2.50
2023-04-02T05:26:14.276Z,2.40
2023-04-02T05:28:44.130Z,2.67
2023-04-02T05:31:36.157Z,2.78
2023-04-02T05:34:03.890Z,2.50
2023-04-02T05:36:32.447Z,2.40
2023-04-02T05:39:00.617Z,2.55
2023-04-02T05:41:38.393Z,2.50
2023-04-02T05:44:30.198Z,2.35
2023-04-02T05:47:01.671Z,2.40
2023-04-02T05:49:47.710Z,2.30
2023-04-02T05:52:24.030Z,2.40
2023-04-02T05:54:59.221Z,2.65
2023-04-02T05:57:43.803Z,2.42
2023-04-02T06:00:25.343Z,2.55
2023-04-02T06:03:01.934Z,2.20
2023-04-02T06:05:36.260Z,2.45
2023-04-02T06:08:31.688Z,2.20
2023-04-02T06:11:07.928Z,2.38
2023-04-02T06:13:35.926Z,2.38
2023-04-02T06:16:04.019Z,2.47
2023-04-02T06:18:34.997Z,2.50
2023-04-02T06:21:03.725Z,2.40
2023-04-02T06:23:41.747Z,2.25
2023-04-02T06:26:32.154Z,2.30
2023-04-02T06:29:13.985Z,2.53
2023-04-02T06:32:02.131Z,2.47
2023-04-02T06:34:31.899Z,2.65
2023-04-02T06:37:03.391Z,2.55
2023-04-02T06:39:31.027Z,2.38
2023-04-02T06:42:19.401Z,2.88
2023-04-02T06:44:47.022Z,2.83
2023-04-02T06:47:28.700Z,2.60
2023-04-02T06:50:02.460Z,2.80
2023-04-02T06:52:40.301Z,2.97
2023-04-02T06:55:19.482Z,2.90
2023-04-02T06:57:48.441Z,2.75
2023-04-02T07:00:31.918Z,2.90
2023-04-02T07:03:02.939Z,2.97
2023-04-02T07:05:30.608Z,3.10
2023-04-02T07:07:58.072Z,2.72
2023-04-02T07:10:25.476Z,2.65
2023-04-02T07:12:52.739Z,2.60
2023-04-02T07:15:20.708Z,2.63
2023-04-02T07:17:48.231Z,2.58
2023-04-02T07:20:27.161Z,2.80
2023-04-02T07:22:54.806Z,2.60
2023-04-02T07:25:22.653Z,2.67
2023-04-02T07:27:50.902Z,2.78
2023-04-02T07:30:18.561Z,2.50
2023-04-02T07:32:46.554Z,2.80
2023-04-02T07:35:14.052Z,2.88
2023-04-02T07:37:41.394Z,2.63
2023-04-02T07:40:18.356Z,2.60
2023-04-02T07:42:46.082Z,2.58
2023-04-02T07:45:14.155Z,2.80
2023-04-02T07:47:41.906Z,3.13
2023-04-02T07:50:10.667Z,2.85
2023-04-02T07:52:44.668Z,2.58
2023-04-02T07:55:14.937Z,2.63
2023-04-02T07:57:54.473Z,2.60
2023-04-02T08:00:22.680Z,2.70
2023-04-02T08:02:51.020Z,2.75
2023-04-02T08:05:18.994Z,2.90
2023-04-02T08:07:56.913Z,2.78
2023-04-02T08:10:24.925Z,3.08
2023-04-02T08:12:52.388Z,2.90
2023-04-02T08:15:20.050Z,2.42
2023-04-02T08:17:48.059Z,2.47
2023-04-02T08:20:18.331Z,2.40
2023-04-02T08:22:47.208Z,2.83
2023-04-02T08:25:14.893Z,2.70
2023-04-02T08:27:42.612Z,2.78
2023-04-02T08:30:12.683Z,2.80
2023-04-02T08:32:41.482Z,2.42
2023-04-02T08:35:11.288Z,2.83
2023-04-02T08:37:39.067Z,3.20
2023-04-02T08:40:07.720Z,2.83
2023-04-02T08:42:41.400Z,2.45
2023-04-02T08:45:39.012Z,2.85
2023-04-02T08:48:09.999Z,2.67
2023-04-02T08:50:41.496Z,2.45
2023-04-02T08:53:24.764Z,2.33
2023-04-02T08:55:59.421Z,2.38
2023-04-02T09:01:11.485Z,2.95
2023-04-02T09:03:59.649Z,3.05
2023-04-02T09:06:29.184Z,2.63
2023-04-02T09:08:58.926Z,3.03
2023-04-02T09:11:41.691Z,2.72
2023-04-02T09:14:24.500Z,2.58
2023-04-02T09:16:59.193Z,2.45
2023-04-02T09:22:21.572Z,2.20
2023-04-02T09:25:00.500Z,2.25
2023-04-02T09:27:30.610Z,2.60
2023-04-02T09:30:06.653Z,2.30
2023-04-02T09:32:52.076Z,2.33
2023-04-02T09:35:39.591Z,2.42
2023-04-02T09:38:09.892Z,2.20
2023-04-02T09:40:52.187Z,2.80
2023-04-02T09:43:24.225Z,2.28
2023-04-02T09:46:00.572Z,2.80
2023-04-02T09:48:49.711Z,2.17
2023-04-02T09:51:26.441Z,2.40
2023-04-02T09:54:05.972Z,2.10
2023-04-02T09:56:35.516Z,2.78
2023-04-02T09:59:04.869Z,2.90
2023-04-02T10:02:03.377Z,2.65
2023-04-02T10:04:48.389Z,3.08
2023-04-02T10:07:47.806Z,2.88
2023-04-02T10:10:35.609Z,3.20
2023-04-02T10:13:17.164Z,2.50
2023-04-02T10:16:01.051Z,2.60
2023-04-02T10:18:37.788Z,2.65
2023-04-02T10:21:06.528Z,2.47
2023-04-02T10:23:34.686Z,2.63
2023-04-02T10:26:24.125Z,2.25
2023-04-02T10:28:57.681Z,2.25
2023-04-02T10:31:48.530Z,2.30
2023-04-02T10:34:34.971Z,3.00
2023-04-02T10:37:40.929Z,2.88
2023-04-02T10:40:31.910Z,3.40
2023-04-02T10:43:12.288Z,2.85
2023-04-02T10:45:56.670Z,3.47
2023-04-02T10:48:32.691Z,3.00
2023-04-02T10:51:24.164Z,3.78
2023-04-02T10:54:13.027Z,2.78
2023-04-02T10:56:50.713Z,3.00
2023-04-02T10:59:26.196Z,3.15
2023-04-02T11:01:57.414Z,2.88
2023-04-02T11:04:32.748Z,2.75
2023-04-02T11:07:19.307Z,2.42
2023-04-02T11:09:50.914Z,2.30
2023-04-02T11:12:43.099Z,2.55
2023-04-02T11:15:21.104Z,3.05
2023-04-02T11:17:49.081Z,2.38
2023-04-02T11:21:04.553Z,2.30
2023-04-02T11:23:57.193Z,2.45
2023-04-02T11:26:41.506Z,2.58
2023-04-02T11:29:21.534Z,2.50
2023-04-02T11:31:51.009Z,2.97
2023-04-02T11:34:59.861Z,2.38
2023-04-02T11:37:45.083Z,2.60
2023-04-02T11:40:13.762Z,2.55
2023-04-02T11:42:53.365Z,2.63
2023-04-02T11:45:26.504Z,2.45
2023-04-02T11:48:08.054Z,3.17
2023-04-02T11:50:37.876Z,2.75
2023-04-02T11:53:14.842Z,3.08
2023-04-02T11:56:06.560Z,2.92
2023-04-02T11:58:54.401Z,2.85
2023-04-02T12:01:44.069Z,2.97
2023-04-02T12:04:30.710Z,3.00
2023-04-02T12:07:19.723Z,2.85
2023-04-02T12:09:59.253Z,3.20
2023-04-02T12:12:37.940Z,3.30
2023-04-02T12:15:27.645Z,3.03
2023-04-02T12:18:06.430Z,2.80
2023-04-02T12:20:34.261Z,2.72
2023-04-02T12:23:02.203Z,2.90
2023-04-02T12:25:40.999Z,3.10
2023-04-02T12:28:20.038Z,3.40
2023-04-02T12:30:49.244Z,3.50
2023-04-02T12:33:20.963Z,3.03
2023-04-02T12:35:50.802Z,3.50
2023-04-02T12:38:28.448Z,3.55
2023-04-02T12:41:01.343Z,3.10
2023-04-02T12:43:32.083Z,3.10
2023-04-02T12:46:02.201Z,2.95
2023-04-02T12:48:31.248Z,3.00
2023-04-02T12:51:00.692Z,3.08
2023-04-02T12:53:38.812Z,3.05
2023-04-02T12:56:08.326Z,2.90
2023-04-02T12:58:42.904Z,2.95
2023-04-02T13:01:27.665Z,3.00
2023-04-02T13:04:08.231Z,2.85
2023-04-02T13:06:40.919Z,2.80
2023-04-02T13:09:30.032Z,3.08
2023-04-02T13:11:57.881Z,3.20
2023-04-02T13:14:25.952Z,2.80
2023-04-02T13:16:53.528Z,3.25
2023-04-02T13:19:22.813Z,3.42
2023-04-02T13:21:52.534Z,2.97
2023-04-02T13:24:25.311Z,3.38
2023-04-02T13:27:02.937Z,3.00
2023-04-02T13:29:31.924Z,2.90
2023-04-02T13:32:04.831Z,3.08
2023-04-02T13:34:32.465Z,3.10
2023-04-02T13:37:00.134Z,3.10
2023-04-02T13:39:27.536Z,2.97
2023-04-02T13:42:01.615Z,3.03
2023-04-02T13:44:31.899Z,2.80
2023-04-02T13:47:00.632Z,3.10
2023-04-02T13:49:28.743Z,2.80
2023-04-02T13:52:05.370Z,3.17
2023-04-02T13:54:44.512Z,2.97
2023-04-02T13:57:12.429Z,2.67
2023-04-02T13:59:39.741Z,2.75
2023-04-02T14:02:21.761Z,2.63
2023-04-02T14:04:52.637Z,2.60
2023-04-02T14:07:39.136Z,2.58
2023-04-02T14:10:14.935Z,2.85
2023-04-02T14:13:06.806Z,2.60
2023-04-02T14:15:47.711Z,2.80
2023-04-02T14:18:33.030Z,2.72
2023-04-02T14:21:00.420Z,2.80
2023-04-02T14:23:55.387Z,2.55
2023-04-02T14:26:41.739Z,2.90
2023-04-02T14:29:17.169Z,2.58
2023-04-02T14:32:01.630Z,2.58
2023-04-02T14:35:07.226Z,2.97
2023-04-02T14:37:59.653Z,3.00
2023-04-02T14:40:42.650Z,2.65
2023-04-02T14:43:27.877Z,2.50
2023-04-02T14:46:05.025Z,3.03
2023-04-02T14:48:48.922Z,2.33
2023-04-02T14:51:40.958Z,2.80
2023-04-02T14:54:21.295Z,2.55
2023-04-02T14:56:55.660Z,2.40
2023-04-02T14:59:44.477Z,2.45
2023-04-02T15:02:40.278Z,2.72
2023-04-02T15:05:21.800Z,2.78
2023-04-02T15:08:28.717Z,2.45
2023-04-02T15:11:08.773Z,2.72
2023-04-02T15:14:22.099Z,2.55
2023-04-02T15:16:49.468Z,2.75
2023-04-02T15:19:18.812Z,2.67
2023-04-02T15:21:59.101Z,2.50
2023-04-02T15:24:50.217Z,2.55
2023-04-02T15:27:40.159Z,2.75
2023-04-02T15:30:18.760Z,2.60
2023-04-02T15:32:47.054Z,2.28
2023-04-02T15:35:27.220Z,2.63
2023-04-02T15:38:22.610Z,2.28
2023-04-02T15:43:56.632Z,2.30
2023-04-02T15:47:05.878Z,2.33
2023-04-02T15:49:33.133Z,2.17
2023-04-02T15:52:24.640Z,2.30
2023-04-02T15:55:09.968Z,2.22
2023-04-02T15:57:58.009Z,2.35
2023-04-02T16:00:31.140Z,2.30
2023-04-02T16:03:23.626Z,2.40
2023-04-02T16:06:12.990Z,2.33
2023-04-02T16:09:02.785Z,2.10
2023-04-02T16:11:30.457Z,2.20
2023-04-02T16:14:24.009Z,2.45
2023-04-02T16:16:54.541Z,1.80
2023-04-02T16:19:42.124Z,1.77
2023-04-02T16:22:18.462Z,2.10
2023-04-02T16:24:53.185Z,2.10
2023-04-02T16:27:40.107Z,1.83
2023-04-02T16:30:22.659Z,1.80
2023-04-02T16:32:56.192Z,2.00
2023-04-02T16:35:49.283Z,1.90
2023-04-02T16:38:40.943Z,1.90
2023-04-02T16:41:42.451Z,1.88
2023-04-02T16:44:26.586Z,1.75
2023-04-02T16:47:42.123Z,1.73
2023-04-02T16:50:24.385Z,1.70
2023-04-02T16:53:17.298Z,1.60
2023-04-02T16:56:03.129Z,1.45
2023-04-02T16:59:17.907Z,1.98
2023-04-02T17:02:13.012Z,1.83
2023-04-02T17:05:12.157Z,1.75
2023-04-02T17:07:51.133Z,1.40
2023-04-02T17:10:24.906Z,1.70
2023-04-02T17:13:03.581Z,1.30
2023-04-02T17:15:40.848Z,1.55
2023-04-02T17:18:24.569Z,1.55
2023-04-02T17:20:52.484Z,1.77
2023-04-02T17:23:20.530Z,1.35
2023-04-02T17:26:06.589Z,1.40
2023-04-02T17:28:38.371Z,1.40
2023-04-02T17:31:19.332Z,1.20
2023-04-02T17:33:46.767Z,1.50
2023-04-02T17:36:41.445Z,1.70
2023-04-02T17:39:35.517Z,1.30
2023-04-02T17:42:20.950Z,1.48
2023-04-02T17:45:14.387Z,1.48
2023-04-02T17:48:03.831Z,1.30
2023-04-02T17:50:53.403Z,1.23
2023-04-02T17:53:33.561Z,1.25
2023-04-02T17:56:24.333Z,1.30
2023-04-02T17:58:57.769Z,1.40
2023-04-02T18:01:37.242Z,1.23
2023-04-02T18:04:23.395Z,1.10
2023-04-02T18:07:24.525Z,1.30
2023-04-02T18:10:14.051Z,1.30
2023-04-02T18:13:06.964Z,1.20
2023-04-02T18:15:47.997Z,1.20
2023-04-02T18:18:46.443Z,1.20
2023-04-02T18:21:53.207Z,1.25
2023-04-02T18:24:48.629Z,1.30
2023-04-02T18:30:18.015Z,1.30
2023-04-02T18:33:06.550Z,1.30
2023-04-02T18:35:39.411Z,1.45
2023-04-02T18:38:28.539Z,1.50
2023-04-02T18:41:14.853Z,1.40
2023-04-02T18:43:55.866Z,1.40
2023-04-02T18:46:41.293Z,1.40
2023-04-02T18:49:20.853Z,1.70
2023-04-02T18:51:54.580Z,1.90
2023-04-02T18:54:42.980Z,1.93
2023-04-02T18:57:17.577Z,1.83
2023-04-02T19:02:42.520Z,1.60
2023-04-02T19:05:32.018Z,1.90
2023-04-02T19:08:28.098Z,1.75
2023-04-02T19:11:00.812Z,1.50
2023-04-02T19:13:28.329Z,1.80
2023-04-02T19:19:15.737Z,2.08
2023-04-02T19:22:10.828Z,1.80
2023-04-02T19:24:41.385Z,2.13
2023-04-02T19:27:27.205Z,2.33
2023-04-02T19:30:29.251Z,2.30
2023-04-02T19:33:07.589Z,2.20
2023-04-02T19:36:15.806Z,2.05
2023-04-02T19:38:54.780Z,2.15
2023-04-02T19:41:48.517Z,2.00
2023-04-02T19:44:17.645Z,2.22
2023-04-02T19:46:46.559Z,1.95
2023-04-02T19:49:28.350Z,2.30
2023-04-02T19:51:56.897Z,2.10
2023-04-02T19:54:24.220Z,2.20
2023-04-02T19:56:51.497Z,2.35
2023-04-02T19:59:19.067Z,2.25
2023-04-02T20:01:47.304Z,2.10
2023-04-02T20:04:14.897Z,2.20
2023-04-02T20:06:42.550Z,1.73
2023-04-02T20:09:09.920Z,2.05
2023-04-02T20:11:38.704Z,2.13
2023-04-02T20:14:06.696Z,2.35
2023-04-02T20:16:36.682Z,2.05
2023-04-02T20:19:04.027Z,2.10
2023-04-02T20:21:38.034Z,2.45
2023-04-02T20:24:07.540Z,1.85
2023-04-02T20:26:36.342Z,2.33
2023-04-02T20:29:04.772Z,2.30
2023-04-02T20:31:32.750Z,2.17
2023-04-02T20:34:00.368Z,2.28
2023-04-02T20:36:27.872Z,2.25
2023-04-02T20:38:55.642Z,2.50
2023-04-02T20:41:23.461Z,2.40
2023-04-02T20:43:50.896Z,2.70
2023-04-02T20:46:18.348Z,2.40
2023-04-02T20:48:46.827Z,2.50
2023-04-02T20:51:15.836Z,2.50
2023-04-02T20:53:44.112Z,2.22
2023-04-02T20:56:14.360Z,2.45
2023-04-02T20:58:43.101Z,2.58
2023-04-02T21:01:19.568Z,2.47
2023-04-02T21:03:47.457Z,2.70
2023-04-02T21:06:16.677Z,2.50
2023-04-02T21:08:44.933Z,2.47
2023-04-02T21:11:12.769Z,2.75
2023-04-02T21:13:42.478Z,2.63
2023-04-02T21:16:20.195Z,2.60
2023-04-02T21:18:50.570Z,2.50
2023-04-02T21:21:19.499Z,2.55
2023-04-02T21:23:47.236Z,2.83
2023-04-02T21:26:18.506Z,2.65
2023-04-02T21:28:46.292Z,2.40
2023-04-02T21:31:16.982Z,2.38
2023-04-02T21:33:46.924Z,2.30
2023-04-02T21:36:21.666Z,1.95
2023-04-02T21:38:55.036Z,2.30
2023-04-02T21:41:27.541Z,2.00
2023-04-02T21:43:58.461Z,2.70
2023-04-02T21:46:31.282Z,2.30
2023-04-02T21:49:00.552Z,2.38
2023-04-02T21:51:30.910Z,2.60
2023-04-02T21:53:59.349Z,1.85
2023-04-02T21:56:29.279Z,2.38
2023-04-02T21:58:58.192Z,2.30
2023-04-02T22:01:30.007Z,2.33
2023-04-02T22:03:59.729Z,2.40
2023-04-02T22:06:29.310Z,2.05
2023-04-02T22:08:59.830Z,2.00
2023-04-02T22:11:29.945Z,1.95
2023-04-02T22:13:57.380Z,2.00
2023-04-02T22:16:27.160Z,2.40
2023-04-02T22:18:56.724Z,2.33
2023-04-02T22:21:25.394Z,2.15
2023-04-02T22:23:53.238Z,2.35
2023-04-02T22:26:23.057Z,2.08
2023-04-02T22:28:52.621Z,1.98
2023-04-02T22:31:23.463Z,2.17
2023-04-02T22:33:52.031Z,2.20
2023-04-02T22:36:22.180Z,1.95
2023-04-02T22:38:50.288Z,2.00
2023-04-02T22:41:21.492Z,1.77
2023-04-02T22:43:49.361Z,2.00
2023-04-02T22:46:18.875Z,1.73
2023-04-02T22:48:48.972Z,1.90
2023-04-02T22:51:18.777Z,1.90
2023-04-02T22:53:46.862Z,2.42
2023-04-02T22:56:17.334Z,1.67
2023-04-02T22:58:45.560Z,1.65
2023-04-02T23:01:22.609Z,1.85
2023-04-02T23:03:52.336Z,1.50
2023-04-02T23:06:19.831Z,1.50
2023-04-02T23:08:47.296Z,1.77
2023-04-02T23:11:17.640Z,1.60
2023-04-02T23:13:46.928Z,1.70
2023-04-02T23:16:15.502Z,1.70
2023-04-02T23:18:45.799Z,1.60
2023-04-02T23:21:13.152Z,1.52
2023-04-02T23:23:40.721Z,1.60
2023-04-02T23:26:17.275Z,1.50
2023-04-02T23:28:44.863Z,1.45
2023-04-02T23:31:15.061Z,1.50
2023-04-02T23:33:43.171Z,1.27
2023-04-02T23:36:14.961Z,1.80
2023-04-02T23:38:42.289Z,1.80
2023-04-02T23:41:14.609Z,1.70
2023-04-02T23:43:42.451Z,1.20
2023-04-02T23:46:10.296Z,1.50
2023-04-02T23:48:37.756Z,1.52
2023-04-02T23:51:06.349Z,1.40
2023-04-02T23:53:34.541Z,1.23
2023-04-02T23:56:01.897Z,1.58
2023-04-02T23:58:29.513Z,1.30
